sensor_id;sensor_type;location;lat;lon;timestamp;pressure;altitude;pressure_sealevel;temperature;humidity
26487;BME280;14425;56.136;40.360;2023-04-15T00:01:11;100793.50;;;3.85;25.74
26487;BME280;14425;56.136;40.360;2023-04-15T00:03:37;100807.06;;;3.84;25.73
26487;BME280;14425;56.136;40.360;2023-04-15T00:06:03;100799.16;;;3.81;25.91
26487;BME280;14425;56.136;40.360;2023-04-15T00:08:29;100814.50;;;3.40;27.10
26487;BME280;14425;56.136;40.360;2023-04-15T00:10:55;100808.16;;;3.98;26.72
26487;BME280;14425;56.136;40.360;2023-04-15T00:13:20;100811.72;;;3.57;25.38
26487;BME280;14425;56.136;40.360;2023-04-15T00:15:46;100810.88;;;3.89;25.95
26487;BME280;14425;56.136;40.360;2023-04-15T00:18:12;100822.66;;;3.66;26.36
26487;BME280;14425;56.136;40.360;2023-04-15T00:20:37;100826.53;;;3.30;26.36
26487;BME280;14425;56.136;40.360;2023-04-15T00:23:03;100819.91;;;3.96;26.24
26487;BME280;14425;56.136;40.360;2023-04-15T00:25:30;100820.91;;;3.35;25.22
26487;BME280;14425;56.136;40.360;2023-04-15T00:27:55;100830.78;;;3.83;27.32
26487;BME280;14425;56.136;40.360;2023-04-15T00:30:21;100834.66;;;4.20;26.53
26487;BME280;14425;56.136;40.360;2023-04-15T00:32:46;100830.09;;;4.06;25.28
26487;BME280;14425;56.136;40.360;2023-04-15T00:35:13;100840.25;;;2.91;26.18
26487;BME280;14425;56.136;40.360;2023-04-15T00:37:38;100832.09;;;3.47;26.82
26487;BME280;14425;56.136;40.360;2023-04-15T00:40:04;100836.91;;;3.95;25.99
26487;BME280;14425;56.136;40.360;2023-04-15T00:42:33;100833.72;;;4.20;26.45
26487;BME280;14425;56.136;40.360;2023-04-15T00:44:59;100844.03;;;3.99;26.32
26487;BME280;14425;56.136;40.360;2023-04-15T00:47:26;100839.78;;;4.10;25.93
26487;BME280;14425;56.136;40.360;2023-04-15T00:49:53;100857.13;;;3.30;26.61
26487;BME280;14425;56.136;40.360;2023-04-15T00:52:18;100863.22;;;3.74;26.93
26487;BME280;14425;56.136;40.360;2023-04-15T00:54:44;100859.16;;;3.65;26.78
26487;BME280;14425;56.136;40.360;2023-04-15T00:57:09;100857.97;;;4.35;26.43
26487;BME280;14425;56.136;40.360;2023-04-15T00:59:35;100856.03;;;4.33;26.32
26487;BME280;14425;56.136;40.360;2023-04-15T01:02:01;100857.75;;;4.22;25.69
26487;BME280;14425;56.136;40.360;2023-04-15T01:04:26;100863.41;;;4.07;26.67
26487;BME280;14425;56.136;40.360;2023-04-15T01:06:52;100868.06;;;3.81;25.41
26487;BME280;14425;56.136;40.360;2023-04-15T01:09:17;100873.81;;;3.58;26.85
26487;BME280;14425;56.136;40.360;2023-04-15T01:11:43;100870.66;;;4.13;26.26
26487;BME280;14425;56.136;40.360;2023-04-15T01:14:09;100870.81;;;4.69;26.11
26487;BME280;14425;56.136;40.360;2023-04-15T01:16:36;100874.78;;;4.43;25.64
26487;BME280;14425;56.136;40.360;2023-04-15T01:19:05;100878.41;;;3.72;26.33
26487;BME280;14425;56.136;40.360;2023-04-15T01:21:35;100890.03;;;4.21;25.53
26487;BME280;14425;56.136;40.360;2023-04-15T01:24:08;100889.69;;;4.17;26.21
26487;BME280;14425;56.136;40.360;2023-04-15T01:26:39;100901.06;;;3.18;26.67
26487;BME280;14425;56.136;40.360;2023-04-15T01:29:04;100898.78;;;3.41;26.49
26487;BME280;14425;56.136;40.360;2023-04-15T01:31:31;100887.16;;;3.96;26.52
26487;BME280;14425;56.136;40.360;2023-04-15T01:33:57;100897.25;;;3.95;26.47
26487;BME280;14425;56.136;40.360;2023-04-15T01:36:41;100897.47;;;4.08;26.20
26487;BME280;14425;56.136;40.360;2023-04-15T01:39:07;100901.16;;;4.12;26.55
26487;BME280;14425;56.136;40.360;2023-04-15T01:41:32;100908.28;;;2.34;27.12
26487;BME280;14425;56.136;40.360;2023-04-15T01:43:59;100908.72;;;3.07;27.93
26487;BME280;14425;56.136;40.360;2023-04-15T01:46:26;100913.22;;;2.81;27.96
26487;BME280;14425;56.136;40.360;2023-04-15T01:48:53;100912.19;;;3.69;26.78
26487;BME280;14425;56.136;40.360;2023-04-15T01:51:19;100907.31;;;4.14;26.58
26487;BME280;14425;56.136;40.360;2023-04-15T01:53:46;100909.19;;;4.59;26.40
26487;BME280;14425;56.136;40.360;2023-04-15T01:56:13;100912.69;;;3.86;26.33
26487;BME280;14425;56.136;40.360;2023-04-15T01:58:39;100909.13;;;3.94;26.09
26487;BME280;14425;56.136;40.360;2023-04-15T02:01:06;100924.78;;;4.09;26.00
26487;BME280;14425;56.136;40.360;2023-04-15T02:03:37;100923.13;;;4.10;26.17
26487;BME280;14425;56.136;40.360;2023-04-15T02:06:04;100920.25;;;3.64;27.19
26487;BME280;14425;56.136;40.360;2023-04-15T02:08:31;100938.59;;;4.01;27.16
26487;BME280;14425;56.136;40.360;2023-04-15T02:10:58;100932.44;;;4.19;26.35
26487;BME280;14425;56.136;40.360;2023-04-15T02:13:26;100939.88;;;4.59;26.44
26487;BME280;14425;56.136;40.360;2023-04-15T02:15:53;100940.13;;;4.84;26.25
26487;BME280;14425;56.136;40.360;2023-04-15T02:18:21;100943.00;;;4.34;25.64
26487;BME280;14425;56.136;40.360;2023-04-15T02:20:47;100942.38;;;4.16;26.50
26487;BME280;14425;56.136;40.360;2023-04-15T02:23:14;100944.81;;;4.15;26.83
26487;BME280;14425;56.136;40.360;2023-04-15T02:25:41;100951.66;;;4.36;26.42
26487;BME280;14425;56.136;40.360;2023-04-15T02:28:08;100952.25;;;4.01;26.84
26487;BME280;14425;56.136;40.360;2023-04-15T02:30:34;100963.72;;;3.96;27.00
26487;BME280;14425;56.136;40.360;2023-04-15T02:33:01;100954.97;;;4.46;26.78
26487;BME280;14425;56.136;40.360;2023-04-15T02:35:28;100956.91;;;4.38;26.19
26487;BME280;14425;56.136;40.360;2023-04-15T02:37:55;100961.28;;;4.08;26.79
26487;BME280;14425;56.136;40.360;2023-04-15T02:40:22;100965.78;;;4.11;26.19
26487;BME280;14425;56.136;40.360;2023-04-15T02:42:48;100970.72;;;4.19;26.32
26487;BME280;14425;56.136;40.360;2023-04-15T02:45:15;100980.97;;;3.88;26.13
26487;BME280;14425;56.136;40.360;2023-04-15T02:47:43;100986.25;;;4.43;26.71
26487;BME280;14425;56.136;40.360;2023-04-15T02:50:11;100979.06;;;5.02;26.10
26487;BME280;14425;56.136;40.360;2023-04-15T02:52:39;100984.00;;;5.55;25.78
26487;BME280;14425;56.136;40.360;2023-04-15T02:55:07;100992.03;;;5.37;25.80
26487;BME280;14425;56.136;40.360;2023-04-15T02:57:35;100990.66;;;5.09;25.81
26487;BME280;14425;56.136;40.360;2023-04-15T03:00:04;100996.69;;;4.99;26.25
26487;BME280;14425;56.136;40.360;2023-04-15T03:02:35;100999.00;;;5.28;26.20
26487;BME280;14425;56.136;40.360;2023-04-15T03:05:02;101006.94;;;4.46;27.07
26487;BME280;14425;56.136;40.360;2023-04-15T03:07:29;101010.84;;;4.20;27.38
26487;BME280;14425;56.136;40.360;2023-04-15T03:09:56;101015.19;;;3.80;28.14
26487;BME280;14425;56.136;40.360;2023-04-15T03:12:23;101000.91;;;4.66;27.72
26487;BME280;14425;56.136;40.360;2023-04-15T03:14:50;101008.66;;;3.94;27.88
26487;BME280;14425;56.136;40.360;2023-04-15T03:17:16;101026.63;;;2.67;28.65
26487;BME280;14425;56.136;40.360;2023-04-15T03:19:43;101030.34;;;3.89;28.97
26487;BME280;14425;56.136;40.360;2023-04-15T03:22:10;101027.53;;;4.06;28.00
26487;BME280;14425;56.136;40.360;2023-04-15T03:24:36;101033.16;;;3.82;27.80
26487;BME280;14425;56.136;40.360;2023-04-15T03:27:03;101042.34;;;3.90;28.54
26487;BME280;14425;56.136;40.360;2023-04-15T03:29:31;101035.47;;;4.30;27.94
26487;BME280;14425;56.136;40.360;2023-04-15T03:31:58;101041.34;;;4.29;28.13
26487;BME280;14425;56.136;40.360;2023-04-15T03:34:25;101047.31;;;4.50;27.94
26487;BME280;14425;56.136;40.360;2023-04-15T03:36:51;101047.16;;;4.69;27.76
26487;BME280;14425;56.136;40.360;2023-04-15T03:39:18;101051.03;;;4.54;27.96
26487;BME280;14425;56.136;40.360;2023-04-15T03:41:45;101047.94;;;4.48;28.04
26487;BME280;14425;56.136;40.360;2023-04-15T03:44:12;101056.00;;;3.91;28.21
26487;BME280;14425;56.136;40.360;2023-04-15T03:46:39;101055.22;;;3.31;28.16
26487;BME280;14425;56.136;40.360;2023-04-15T03:49:06;101055.63;;;3.07;29.28
26487;BME280;14425;56.136;40.360;2023-04-15T03:51:33;101061.13;;;4.11;29.02
26487;BME280;14425;56.136;40.360;2023-04-15T03:54:00;101059.19;;;4.50;27.65
26487;BME280;14425;56.136;40.360;2023-04-15T03:56:27;101057.03;;;4.34;28.22
26487;BME280;14425;56.136;40.360;2023-04-15T03:58:54;101058.44;;;4.51;27.93
26487;BME280;14425;56.136;40.360;2023-04-15T04:01:21;101071.47;;;4.43;28.31
26487;BME280;14425;56.136;40.360;2023-04-15T04:03:48;101065.69;;;4.56;27.98
26487;BME280;14425;56.136;40.360;2023-04-15T04:06:15;101072.75;;;4.18;29.11
26487;BME280;14425;56.136;40.360;2023-04-15T04:08:42;101072.22;;;4.53;28.34
26487;BME280;14425;56.136;40.360;2023-04-15T04:11:09;101071.13;;;4.92;27.83
26487;BME280;14425;56.136;40.360;2023-04-15T04:13:36;101077.09;;;5.03;27.33
26487;BME280;14425;56.136;40.360;2023-04-15T04:16:02;101072.44;;;5.51;27.72
26487;BME280;14425;56.136;40.360;2023-04-15T04:18:31;101071.97;;;4.60;27.51
26487;BME280;14425;56.136;40.360;2023-04-15T04:20:58;101073.66;;;4.29;28.20
26487;BME280;14425;56.136;40.360;2023-04-15T04:23:25;101076.69;;;4.66;28.18
26487;BME280;14425;56.136;40.360;2023-04-15T04:25:52;101076.97;;;5.11;27.26
26487;BME280;14425;56.136;40.360;2023-04-15T04:28:18;101082.56;;;4.44;27.52
26487;BME280;14425;56.136;40.360;2023-04-15T04:30:45;101087.69;;;4.23;28.58
26487;BME280;14425;56.136;40.360;2023-04-15T04:33:12;101089.84;;;4.39;27.52
26487;BME280;14425;56.136;40.360;2023-04-15T04:35:39;101089.00;;;3.29;28.34
26487;BME280;14425;56.136;40.360;2023-04-15T04:38:05;101089.66;;;3.76;28.39
26487;BME280;14425;56.136;40.360;2023-04-15T04:40:32;101095.97;;;4.00;28.07
26487;BME280;14425;56.136;40.360;2023-04-15T04:42:59;101087.69;;;3.53;28.80
26487;BME280;14425;56.136;40.360;2023-04-15T04:45:26;101098.13;;;3.96;27.24
26487;BME280;14425;56.136;40.360;2023-04-15T04:47:52;101097.38;;;4.17;27.92
26487;BME280;14425;56.136;40.360;2023-04-15T04:50:19;101092.06;;;3.64;27.45
26487;BME280;14425;56.136;40.360;2023-04-15T04:52:46;101091.00;;;4.12;27.50
26487;BME280;14425;56.136;40.360;2023-04-15T04:55:13;101083.50;;;4.97;26.88
26487;BME280;14425;56.136;40.360;2023-04-15T04:57:39;101095.22;;;4.73;27.92
26487;BME280;14425;56.136;40.360;2023-04-15T05:00:07;101091.66;;;4.51;26.31
26487;BME280;14425;56.136;40.360;2023-04-15T05:02:34;101078.66;;;5.00;26.44
26487;BME280;14425;56.136;40.360;2023-04-15T05:05:01;101097.63;;;5.14;25.79
26487;BME280;14425;56.136;40.360;2023-04-15T05:07:28;101087.91;;;4.88;25.80
26487;BME280;14425;56.136;40.360;2023-04-15T05:09:54;101103.91;;;4.14;25.51
26487;BME280;14425;56.136;40.360;2023-04-15T05:12:22;101105.81;;;2.78;26.46
26487;BME280;14425;56.136;40.360;2023-04-15T05:14:48;101097.84;;;3.72;27.27
26487;BME280;14425;56.136;40.360;2023-04-15T05:17:15;101103.38;;;4.69;25.96
26487;BME280;14425;56.136;40.360;2023-04-15T05:19:42;101093.19;;;4.49;25.75
26487;BME280;14425;56.136;40.360;2023-04-15T05:22:08;101087.75;;;4.76;26.26
26487;BME280;14425;56.136;40.360;2023-04-15T05:24:35;101095.88;;;4.50;25.30
26487;BME280;14425;56.136;40.360;2023-04-15T05:27:02;101099.81;;;4.26;26.15
26487;BME280;14425;56.136;40.360;2023-04-15T05:29:29;101093.59;;;4.96;26.41
26487;BME280;14425;56.136;40.360;2023-04-15T05:31:56;101100.09;;;3.29;26.28
26487;BME280;14425;56.136;40.360;2023-04-15T05:34:22;101093.31;;;4.09;25.75
26487;BME280;14425;56.136;40.360;2023-04-15T05:36:49;101088.31;;;5.47;25.42
26487;BME280;14425;56.136;40.360;2023-04-15T05:39:16;101093.34;;;4.93;25.96
26487;BME280;14425;56.136;40.360;2023-04-15T05:41:43;101087.28;;;6.00;24.41
26487;BME280;14425;56.136;40.360;2023-04-15T05:44:09;101097.03;;;3.63;24.94
26487;BME280;14425;56.136;40.360;2023-04-15T05:46:36;101102.88;;;4.32;25.94
26487;BME280;14425;56.136;40.360;2023-04-15T05:49:03;101099.16;;;5.77;25.49
26487;BME280;14425;56.136;40.360;2023-04-15T05:51:30;101102.41;;;5.10;25.11
26487;BME280;14425;56.136;40.360;2023-04-15T05:53:56;101104.50;;;4.73;24.50
26487;BME280;14425;56.136;40.360;2023-04-15T05:56:23;101096.75;;;6.35;24.88
26487;BME280;14425;56.136;40.360;2023-04-15T05:58:52;101097.91;;;5.72;23.76
26487;BME280;14425;56.136;40.360;2023-04-15T06:01:18;101102.28;;;5.63;25.22
26487;BME280;14425;56.136;40.360;2023-04-15T06:03:46;101096.72;;;6.92;24.31
26487;BME280;14425;56.136;40.360;2023-04-15T06:06:12;101094.28;;;7.29;22.93
26487;BME280;14425;56.136;40.360;2023-04-15T06:08:40;101105.63;;;6.62;22.44
26487;BME280;14425;56.136;40.360;2023-04-15T06:11:06;101112.44;;;5.29;22.85
26487;BME280;14425;56.136;40.360;2023-04-15T06:13:33;101102.50;;;6.20;23.63
26487;BME280;14425;56.136;40.360;2023-04-15T06:16:00;101099.69;;;6.17;24.32
26487;BME280;14425;56.136;40.360;2023-04-15T06:18:27;101097.16;;;7.22;23.87
26487;BME280;14425;56.136;40.360;2023-04-15T06:20:53;101099.72;;;8.33;23.45
26487;BME280;14425;56.136;40.360;2023-04-15T06:23:20;101104.78;;;8.57;22.32
26487;BME280;14425;56.136;40.360;2023-04-15T06:25:47;101097.06;;;8.31;22.67
26487;BME280;14425;56.136;40.360;2023-04-15T06:28:14;101112.06;;;7.63;21.84
26487;BME280;14425;56.136;40.360;2023-04-15T06:30:41;101102.75;;;8.14;21.52
26487;BME280;14425;56.136;40.360;2023-04-15T06:33:07;101099.38;;;8.92;24.55
26487;BME280;14425;56.136;40.360;2023-04-15T06:35:34;101106.66;;;7.11;22.93
26487;BME280;14425;56.136;40.360;2023-04-15T06:38:01;101116.28;;;6.44;24.83
26487;BME280;14425;56.136;40.360;2023-04-15T06:40:28;101116.78;;;6.62;23.45
26487;BME280;14425;56.136;40.360;2023-04-15T06:42:55;101108.13;;;6.84;23.86
26487;BME280;14425;56.136;40.360;2023-04-15T06:45:21;101104.09;;;6.30;24.57
26487;BME280;14425;56.136;40.360;2023-04-15T06:47:48;101115.06;;;6.17;24.65
26487;BME280;14425;56.136;40.360;2023-04-15T06:50:15;101109.13;;;7.82;23.82
26487;BME280;14425;56.136;40.360;2023-04-15T06:52:41;101106.63;;;8.46;22.06
26487;BME280;14425;56.136;40.360;2023-04-15T06:55:08;101102.00;;;8.28;22.45
26487;BME280;14425;56.136;40.360;2023-04-15T06:57:35;101108.84;;;8.41;21.88
26487;BME280;14425;56.136;40.360;2023-04-15T07:00:02;101100.69;;;8.99;21.76
26487;BME280;14425;56.136;40.360;2023-04-15T07:02:31;101117.38;;;7.78;22.37
26487;BME280;14425;56.136;40.360;2023-04-15T07:04:57;101111.50;;;8.04;21.51
26487;BME280;14425;56.136;40.360;2023-04-15T07:07:24;101116.97;;;8.73;21.85
26487;BME280;14425;56.136;40.360;2023-04-15T07:09:51;101108.59;;;9.02;21.69
26487;BME280;14425;56.136;40.360;2023-04-15T07:12:19;101110.72;;;8.56;22.28
26487;BME280;14425;56.136;40.360;2023-04-15T07:14:46;101100.25;;;9.19;21.67
26487;BME280;14425;56.136;40.360;2023-04-15T07:17:13;101101.72;;;9.56;20.42
26487;BME280;14425;56.136;40.360;2023-04-15T07:19:39;101104.78;;;9.64;20.38
26487;BME280;14425;56.136;40.360;2023-04-15T07:22:06;101100.78;;;9.00;20.55
26487;BME280;14425;56.136;40.360;2023-04-15T07:24:33;101112.47;;;9.77;20.43
26487;BME280;14425;56.136;40.360;2023-04-15T07:27:00;101106.72;;;9.68;20.46
26487;BME280;14425;56.136;40.360;2023-04-15T07:29:27;101108.50;;;9.82;20.74
26487;BME280;14425;56.136;40.360;2023-04-15T07:31:53;101103.03;;;8.96;20.47
26487;BME280;14425;56.136;40.360;2023-04-15T07:34:22;101095.91;;;9.45;20.65
26487;BME280;14425;56.136;40.360;2023-04-15T07:36:50;101105.88;;;8.60;20.28
26487;BME280;14425;56.136;40.360;2023-04-15T07:39:17;101100.06;;;8.90;19.75
26487;BME280;14425;56.136;40.360;2023-04-15T07:41:44;101101.81;;;8.64;19.57
26487;BME280;14425;56.136;40.360;2023-04-15T07:44:12;101113.81;;;7.76;20.50
26487;BME280;14425;56.136;40.360;2023-04-15T07:46:38;101108.09;;;9.07;20.58
26487;BME280;14425;56.136;40.360;2023-04-15T07:49:05;101098.09;;;9.12;19.50
26487;BME280;14425;56.136;40.360;2023-04-15T07:51:32;101106.59;;;8.84;19.30
26487;BME280;14425;56.136;40.360;2023-04-15T07:53:59;101107.13;;;9.74;20.42
26487;BME280;14425;56.136;40.360;2023-04-15T07:56:26;101106.97;;;8.39;19.06
26487;BME280;14425;56.136;40.360;2023-04-15T07:58:53;101106.13;;;9.17;20.05
26487;BME280;14425;56.136;40.360;2023-04-15T08:01:19;101087.59;;;10.49;19.41
26487;BME280;14425;56.136;40.360;2023-04-15T08:03:46;101090.63;;;10.13;18.67
26487;BME280;14425;56.136;40.360;2023-04-15T08:06:13;101094.16;;;11.03;19.04
26487;BME280;14425;56.136;40.360;2023-04-15T08:08:40;101091.94;;;10.07;19.17
26487;BME280;14425;56.136;40.360;2023-04-15T08:11:07;101068.06;;;10.52;19.28
26487;BME280;14425;56.136;40.360;2023-04-15T08:13:34;101104.22;;;10.54;18.93
26487;BME280;14425;56.136;40.360;2023-04-15T08:18:49;101095.97;;;10.75;19.00
26487;BME280;14425;56.136;40.360;2023-04-15T08:21:17;101085.44;;;11.16;17.70
26487;BME280;14425;56.136;40.360;2023-04-15T08:23:46;101087.84;;;10.98;18.54
26487;BME280;14425;56.136;40.360;2023-04-15T08:26:13;101089.13;;;10.60;17.51
26487;BME280;14425;56.136;40.360;2023-04-15T08:28:40;101091.00;;;11.55;18.68
26487;BME280;14425;56.136;40.360;2023-04-15T08:31:07;101091.31;;;10.84;17.54
26487;BME280;14425;56.136;40.360;2023-04-15T08:33:34;101092.91;;;11.12;17.78
26487;BME280;14425;56.136;40.360;2023-04-15T08:36:01;101094.63;;;11.42;17.54
26487;BME280;14425;56.136;40.360;2023-04-15T08:38:28;101094.09;;;11.33;17.35
26487;BME280;14425;56.136;40.360;2023-04-15T08:40:57;101075.81;;;11.93;17.67
26487;BME280;14425;56.136;40.360;2023-04-15T08:43:32;101089.44;;;12.74;17.99
26487;BME280;14425;56.136;40.360;2023-04-15T08:46:00;101073.38;;;12.81;17.07
26487;BME280;14425;56.136;40.360;2023-04-15T08:48:28;101075.81;;;11.93;17.82
26487;BME280;14425;56.136;40.360;2023-04-15T08:50:58;101076.47;;;13.28;16.69
26487;BME280;14425;56.136;40.360;2023-04-15T08:53:25;101076.00;;;12.65;17.28
26487;BME280;14425;56.136;40.360;2023-04-15T08:55:55;101071.63;;;13.72;17.70
26487;BME280;14425;56.136;40.360;2023-04-15T08:58:22;101061.69;;;13.63;16.84
26487;BME280;14425;56.136;40.360;2023-04-15T09:00:50;101066.22;;;12.75;16.29
26487;BME280;14425;56.136;40.360;2023-04-15T09:03:17;101064.41;;;12.74;16.58
26487;BME280;14425;56.136;40.360;2023-04-15T09:05:44;101059.84;;;13.05;16.91
26487;BME280;14425;56.136;40.360;2023-04-15T09:08:12;101061.31;;;13.00;16.26
26487;BME280;14425;56.136;40.360;2023-04-15T09:10:39;101065.22;;;13.27;18.21
26487;BME280;14425;56.136;40.360;2023-04-15T09:13:05;101068.91;;;13.88;16.91
26487;BME280;14425;56.136;40.360;2023-04-15T09:15:35;101050.28;;;15.91;15.92
26487;BME280;14425;56.136;40.360;2023-04-15T09:18:04;101059.50;;;14.31;16.80
26487;BME280;14425;56.136;40.360;2023-04-15T09:20:38;101055.84;;;15.10;15.94
26487;BME280;14425;56.136;40.360;2023-04-15T09:23:13;101044.09;;;16.13;15.96
26487;BME280;14425;56.136;40.360;2023-04-15T09:25:40;101039.53;;;17.39;14.84
26487;BME280;14425;56.136;40.360;2023-04-15T09:28:10;101036.34;;;16.92;14.82
26487;BME280;14425;56.136;40.360;2023-04-15T09:30:37;101051.44;;;15.52;15.42
26487;BME280;14425;56.136;40.360;2023-04-15T09:33:04;101049.94;;;16.32;14.98
26487;BME280;14425;56.136;40.360;2023-04-15T09:35:33;101058.63;;;15.60;15.07
26487;BME280;14425;56.136;40.360;2023-04-15T09:38:05;101049.16;;;16.08;14.64
26487;BME280;14425;56.136;40.360;2023-04-15T09:40:34;101044.03;;;16.87;15.27
26487;BME280;14425;56.136;40.360;2023-04-15T09:43:02;101045.19;;;16.97;14.71
26487;BME280;14425;56.136;40.360;2023-04-15T09:45:31;101047.94;;;15.52;14.66
26487;BME280;14425;56.136;40.360;2023-04-15T09:48:13;101035.06;;;16.53;15.29
26487;BME280;14425;56.136;40.360;2023-04-15T09:50:41;101051.09;;;16.40;15.17
26487;BME280;14425;56.136;40.360;2023-04-15T09:53:09;101055.47;;;15.01;16.12
26487;BME280;14425;56.136;40.360;2023-04-15T09:55:37;101045.94;;;16.16;14.72
26487;BME280;14425;56.136;40.360;2023-04-15T09:58:08;101052.66;;;16.09;15.27
26487;BME280;14425;56.136;40.360;2023-04-15T10:00:36;101049.66;;;18.21;15.58
26487;BME280;14425;56.136;40.360;2023-04-15T10:03:04;101043.19;;;18.38;17.21
26487;BME280;14425;56.136;40.360;2023-04-15T10:05:32;101041.31;;;19.04;16.51
26487;BME280;14425;56.136;40.360;2023-04-15T10:08:00;101045.75;;;15.63;16.01
26487;BME280;14425;56.136;40.360;2023-04-15T10:10:27;101044.34;;;16.19;16.64
26487;BME280;14425;56.136;40.360;2023-04-15T10:12:54;101041.63;;;17.83;18.07
26487;BME280;14425;56.136;40.360;2023-04-15T10:15:23;101040.63;;;18.76;16.18
26487;BME280;14425;56.136;40.360;2023-04-15T10:17:52;101041.69;;;17.84;16.85
26487;BME280;14425;56.136;40.360;2023-04-15T10:20:21;101041.94;;;16.77;14.69
26487;BME280;14425;56.136;40.360;2023-04-15T10:22:48;101041.03;;;16.25;18.61
26487;BME280;14425;56.136;40.360;2023-04-15T10:25:17;101037.38;;;17.26;17.13
26487;BME280;14425;56.136;40.360;2023-04-15T10:27:45;101045.31;;;17.59;16.31
26487;BME280;14425;56.136;40.360;2023-04-15T10:30:14;101052.28;;;17.59;16.34
26487;BME280;14425;56.136;40.360;2023-04-15T10:32:41;101036.47;;;17.54;15.74
26487;BME280;14425;56.136;40.360;2023-04-15T10:35:08;101037.50;;;17.59;14.91
26487;BME280;14425;56.136;40.360;2023-04-15T10:37:37;101041.22;;;17.67;16.09
26487;BME280;14425;56.136;40.360;2023-04-15T10:40:30;101032.13;;;19.22;15.77
26487;BME280;14425;56.136;40.360;2023-04-15T10:42:59;101038.69;;;18.34;15.23
26487;BME280;14425;56.136;40.360;2023-04-15T10:45:31;101035.94;;;16.28;16.58
26487;BME280;14425;56.136;40.360;2023-04-15T10:48:01;101047.53;;;14.75;15.46
26487;BME280;14425;56.136;40.360;2023-04-15T10:50:30;101035.34;;;16.88;16.48
26487;BME280;14425;56.136;40.360;2023-04-15T10:52:57;101037.38;;;17.26;16.04
26487;BME280;14425;56.136;40.360;2023-04-15T10:55:26;101033.91;;;18.18;15.08
26487;BME280;14425;56.136;40.360;2023-04-15T10:57:54;101043.09;;;17.43;13.89
26487;BME280;14425;56.136;40.360;2023-04-15T11:00:29;101035.81;;;16.49;15.87
26487;BME280;14425;56.136;40.360;2023-04-15T11:03:05;101034.84;;;17.58;14.59
26487;BME280;14425;56.136;40.360;2023-04-15T11:08:09;101039.03;;;17.83;15.27
26487;BME280;14425;56.136;40.360;2023-04-15T11:13:04;101038.50;;;18.95;14.52
26487;BME280;14425;56.136;40.360;2023-04-15T11:15:42;101021.25;;;20.33;15.37
26487;BME280;14425;56.136;40.360;2023-04-15T11:18:26;101034.94;;;18.91;14.52
26487;BME280;14425;56.136;40.360;2023-04-15T11:21:05;101033.25;;;17.32;14.20
26487;BME280;14425;56.136;40.360;2023-04-15T11:23:39;101022.47;;;17.81;15.44
26487;BME280;14425;56.136;40.360;2023-04-15T11:26:10;101026.63;;;17.44;14.89
26487;BME280;14425;56.136;40.360;2023-04-15T11:28:41;101017.03;;;19.49;15.63
26487;BME280;14425;56.136;40.360;2023-04-15T11:31:13;101011.97;;;19.58;14.24
26487;BME280;14425;56.136;40.360;2023-04-15T11:33:57;101012.91;;;20.05;14.51
26487;BME280;14425;56.136;40.360;2023-04-15T11:36:25;101017.16;;;20.00;14.45
26487;BME280;14425;56.136;40.360;2023-04-15T11:38:53;101006.44;;;19.86;13.49
26487;BME280;14425;56.136;40.360;2023-04-15T11:41:21;101011.31;;;19.70;14.49
26487;BME280;14425;56.136;40.360;2023-04-15T11:43:49;101015.03;;;18.98;14.17
26487;BME280;14425;56.136;40.360;2023-04-15T11:46:16;101008.06;;;19.79;14.22
26487;BME280;14425;56.136;40.360;2023-04-15T11:48:44;101002.03;;;19.83;13.79
26487;BME280;14425;56.136;40.360;2023-04-15T11:51:12;101010.03;;;18.02;14.25
26487;BME280;14425;56.136;40.360;2023-04-15T11:53:40;101003.66;;;18.26;14.33
26487;BME280;14425;56.136;40.360;2023-04-15T11:56:15;101005.44;;;18.62;15.13
26487;BME280;14425;56.136;40.360;2023-04-15T11:58:41;101005.69;;;16.06;15.22
26487;BME280;14425;56.136;40.360;2023-04-15T12:01:07;100997.13;;;16.87;15.41
26487;BME280;14425;56.136;40.360;2023-04-15T12:03:41;101004.81;;;16.31;17.17
26487;BME280;14425;56.136;40.360;2023-04-15T12:11:45;100989.75;;;17.92;16.94
26487;BME280;14425;56.136;40.360;2023-04-15T12:14:19;101000.50;;;18.04;16.74
26487;BME280;14425;56.136;40.360;2023-04-15T12:16:54;100985.31;;;16.98;15.82
26487;BME280;14425;56.136;40.360;2023-04-15T12:19:27;100989.69;;;16.47;16.26
26487;BME280;14425;56.136;40.360;2023-04-15T12:22:14;100988.66;;;16.94;17.70
26487;BME280;14425;56.136;40.360;2023-04-15T12:24:41;101005.06;;;14.95;15.51
26487;BME280;14425;56.136;40.360;2023-04-15T12:27:13;100998.13;;;15.64;16.09
26487;BME280;14425;56.136;40.360;2023-04-15T12:29:41;100989.72;;;16.74;16.08
26487;BME280;14425;56.136;40.360;2023-04-15T12:32:16;100987.41;;;18.03;16.68
26487;BME280;14425;56.136;40.360;2023-04-15T12:34:52;100987.13;;;17.92;17.35
26487;BME280;14425;56.136;40.360;2023-04-15T12:37:18;100991.53;;;18.26;17.22
26487;BME280;14425;56.136;40.360;2023-04-15T12:39:48;100986.16;;;17.28;15.38
26487;BME280;14425;56.136;40.360;2023-04-15T12:42:15;100999.00;;;17.50;15.53
26487;BME280;14425;56.136;40.360;2023-04-15T12:44:41;100993.75;;;16.91;15.50
26487;BME280;14425;56.136;40.360;2023-04-15T12:47:09;100989.09;;;17.69;15.62
26487;BME280;14425;56.136;40.360;2023-04-15T12:49:36;100992.53;;;17.38;15.87
26487;BME280;14425;56.136;40.360;2023-04-15T12:52:02;100991.22;;;14.74;16.96
26487;BME280;14425;56.136;40.360;2023-04-15T12:54:29;100991.38;;;14.56;17.30
26487;BME280;14425;56.136;40.360;2023-04-15T12:56:55;101003.94;;;14.89;16.85
26487;BME280;14425;56.136;40.360;2023-04-15T12:59:21;100996.84;;;15.07;17.09
26487;BME280;14425;56.136;40.360;2023-04-15T13:01:48;100997.34;;;15.42;16.78